Time;durP1;ratioP1;P1;durP2;ratioP2;P2;SDS_P1;SDS_P2;PMS_P1;PMS_P2;Temp;Humidity;BMP_temperature;BMP_pressure;BME280_temperature;BME280_humidity;BME280_pressure;Samples;Min_cycle;Max_cycle;Signal;HPM_P1;HPM_P2
2024/04/01 00:00:46;;;;;;;5.45;0.38;;;12.10;99.90;;;;;;4993600;28;20042;-69
2024/04/01 00:03:12;;;;;;;1.13;0.40;;;12.10;99.90;;;;;;4994086;28;20034;-70
2024/04/01 00:05:38;;;;;;;1.77;0.57;;;12.10;99.90;;;;;;4993959;28;20042;-69
2024/04/01 00:08:04;;;;;;;0.45;0.45;;;12.10;99.90;;;;;;4992654;28;20041;-70
2024/04/01 00:10:29;;;;;;;4.22;1.15;;;12.00;99.90;;;;;;4993034;28;20045;-69
2024/04/01 00:12:58;;;;;;;3.28;0.13;;;12.00;99.90;;;;;;4992364;28;20034;-70
2024/04/01 00:15:27;;;;;;;1.35;0.20;;;11.90;99.90;;;;;;4992466;28;20462;-70
2024/04/01 00:17:53;;;;;;;0.63;0.38;;;11.90;99.90;;;;;;4993734;28;20030;-70
2024/04/01 00:20:19;;;;;;;0.47;0.22;;;11.90;99.90;;;;;;4994192;28;20116;-70
2024/04/01 00:22:45;;;;;;;1.80;0.60;;;11.70;99.90;;;;;;4993268;28;20073;-69
2024/04/01 00:25:11;;;;;;;2.83;0.22;;;11.50;99.90;;;;;;4994313;28;20555;-70
2024/04/01 00:27:36;;;;;;;0.65;0.22;;;11.50;99.90;;;;;;4992860;28;20045;-69
2024/04/01 00:30:06;;;;;;;0.88;0.38;;;11.50;99.90;;;;;;4993460;28;20105;-69
2024/04/01 00:32:33;;;;;;;2.40;0.65;;;11.40;99.90;;;;;;4976043;28;20031;-70
2024/04/01 00:34:58;;;;;;;0.68;0.28;;;11.40;99.90;;;;;;4994117;28;20418;-69
2024/04/01 00:37:24;;;;;;;1.55;0.40;;;11.30;99.90;;;;;;4992675;28;20117;-70
2024/04/01 00:39:50;;;;;;;0.20;0.10;;;11.40;99.90;;;;;;4993402;28;20026;-69
2024/04/01 00:42:15;;;;;;;3.42;0.43;;;11.50;99.90;;;;;;4992984;28;20372;-70
2024/04/01 00:44:41;;;;;;;1.55;1.00;;;11.50;99.90;;;;;;4993757;28;20084;-70
2024/04/01 00:47:07;;;;;;;0.85;0.38;;;11.60;99.90;;;;;;4992551;28;20030;-70
2024/04/01 00:49:33;;;;;;;4.95;0.93;;;11.60;99.90;;;;;;5008313;28;20025;-70
2024/04/01 00:52:00;;;;;;;1.65;0.30;;;11.70;99.90;;;;;;4991657;28;20100;-70
2024/04/01 00:54:26;;;;;;;4.07;0.77;;;11.70;99.90;;;;;;4993456;28;20034;-70
2024/04/01 00:56:52;;;;;;;0.20;0.10;;;11.70;99.90;;;;;;4987729;28;20050;-70
2024/04/01 00:59:19;;;;;;;1.05;0.25;;;11.70;99.90;;;;;;4990202;28;20110;-70
2024/04/01 01:01:47;;;;;;;0.57;0.30;;;11.70;99.90;;;;;;4991223;28;20112;-70
2024/04/01 01:04:14;;;;;;;0.22;0.20;;;11.60;99.90;;;;;;5006434;28;20026;-70
2024/04/01 01:06:42;;;;;;;0.10;0.10;;;11.60;99.90;;;;;;5000227;28;20113;-70
2024/04/01 01:09:11;;;;;;;0.52;0.20;;;11.60;99.90;;;;;;4988791;28;20207;-70
2024/04/01 01:11:38;;;;;;;0.28;0.20;;;11.60;99.90;;;;;;5007749;28;20038;-70
2024/04/01 01:14:04;;;;;;;0.85;0.22;;;11.60;99.90;;;;;;5008403;28;20041;-70
2024/04/01 01:16:30;;;;;;;2.72;0.40;;;11.50;99.90;;;;;;4990399;28;20054;-70
2024/04/01 01:18:56;;;;;;;0.73;0.35;;;11.50;99.90;;;;;;5008047;28;20061;-70
2024/04/01 01:21:22;;;;;;;0.28;0.20;;;11.50;99.90;;;;;;4990807;28;20026;-70
2024/04/01 01:23:48;;;;;;;0.35;0.17;;;11.60;99.90;;;;;;4985866;28;20031;-70
2024/04/01 01:26:14;;;;;;;1.23;0.40;;;11.50;99.90;;;;;;4992285;28;20035;-70
2024/04/01 01:28:40;;;;;;;0.32;0.20;;;11.50;99.90;;;;;;4991864;28;20077;-70
2024/04/01 01:31:06;;;;;;;0.15;0.10;;;11.50;99.90;;;;;;4991719;28;20042;-70
2024/04/01 01:33:32;;;;;;;0.30;0.10;;;11.50;99.90;;;;;;4990611;28;20041;-70
2024/04/01 01:36:00;;;;;;;0.35;0.30;;;11.50;99.90;;;;;;4990738;28;20038;-70
2024/04/01 01:38:26;;;;;;;0.75;0.38;;;11.40;99.90;;;;;;4991057;28;20617;-69
2024/04/01 01:40:52;;;;;;;1.15;0.63;;;11.40;99.90;;;;;;5010784;28;20026;-69
2024/04/01 01:43:18;;;;;;;0.88;0.47;;;11.30;99.90;;;;;;4991769;28;20032;-69
2024/04/01 01:45:44;;;;;;;0.35;0.05;;;11.30;99.90;;;;;;4992376;28;20034;-69
2024/04/01 01:48:10;;;;;;;0.40;0.13;;;11.20;99.90;;;;;;4990772;28;20052;-70
2024/04/01 01:50:35;;;;;;;3.80;0.20;;;11.20;99.90;;;;;;4990976;28;20031;-69
2024/04/01 01:53:01;;;;;;;0.55;0.20;;;11.30;99.90;;;;;;4991351;28;20092;-69
2024/04/01 01:55:27;;;;;;;0.25;0.15;;;11.20;99.90;;;;;;4989111;28;20034;-69
2024/04/01 01:57:53;;;;;;;0.75;0.40;;;11.20;99.90;;;;;;4992157;28;20491;-69
2024/04/01 02:00:18;;;;;;;0.00;0.00;;;11.20;99.90;;;;;;4990631;28;20042;-69
2024/04/01 02:02:44;;;;;;;1.25;0.25;;;11.30;99.90;;;;;;4991565;28;20406;-69
2024/04/01 02:05:10;;;;;;;1.38;0.32;;;11.20;99.90;;;;;;4992457;28;20026;-69
2024/04/01 02:07:36;;;;;;;0.88;0.25;;;11.10;99.90;;;;;;4991143;28;20069;-69
2024/04/01 02:10:03;;;;;;;0.73;0.35;;;11.10;99.90;;;;;;4990781;28;20395;-69
2024/04/01 02:12:29;;;;;;;1.95;0.35;;;11.10;99.90;;;;;;4988714;28;20985;-70
2024/04/01 02:14:55;;;;;;;1.17;0.50;;;11.10;99.90;;;;;;5008630;28;20042;-69
2024/04/01 02:17:21;;;;;;;1.67;0.75;;;11.00;99.90;;;;;;4989697;28;20038;-69
2024/04/01 02:19:47;;;;;;;0.75;0.15;;;11.00;99.90;;;;;;4990789;28;20053;-69
2024/04/01 02:22:14;;;;;;;1.95;0.50;;;11.10;99.90;;;;;;4989724;28;20541;-70
2024/04/01 02:24:43;;;;;;;1.05;0.50;;;11.00;99.90;;;;;;5006419;28;20084;-69
2024/04/01 02:27:10;;;;;;;3.45;0.60;;;11.00;99.90;;;;;;4989298;28;20057;-69
2024/04/01 02:29:37;;;;;;;0.38;0.17;;;11.00;99.90;;;;;;5006597;28;20029;-69
2024/04/01 02:32:04;;;;;;;0.77;0.32;;;10.90;99.90;;;;;;5006244;28;20546;-70
2024/04/01 02:34:29;;;;;;;0.45;0.20;;;10.90;99.90;;;;;;5006327;28;20117;-70
2024/04/01 02:36:55;;;;;;;1.05;0.50;;;10.90;99.90;;;;;;4990255;28;20062;-70
2024/04/01 02:39:22;;;;;;;0.32;0.28;;;11.00;99.90;;;;;;4991220;28;20041;-70
2024/04/01 02:41:51;;;;;;;1.08;0.43;;;11.00;99.90;;;;;;4989796;28;20042;-69
2024/04/01 02:44:17;;;;;;;0.75;0.30;;;10.90;99.90;;;;;;5006275;28;20513;-69
2024/04/01 02:46:44;;;;;;;0.77;0.32;;;10.90;99.90;;;;;;5005128;28;20542;-69
2024/04/01 02:49:11;;;;;;;1.67;0.57;;;10.80;99.90;;;;;;5006318;28;20057;-71
2024/04/01 02:51:38;;;;;;;0.75;0.35;;;10.80;99.90;;;;;;4991248;28;20383;-70
2024/04/01 02:54:05;;;;;;;3.20;0.32;;;10.80;99.90;;;;;;5006054;28;20076;-70
2024/04/01 02:56:31;;;;;;;0.85;0.43;;;10.70;99.90;;;;;;4989270;28;20057;-70
2024/04/01 02:59:09;;;;;;;0.75;0.32;;;10.70;99.90;;;;;;5006510;28;20128;-70
2024/04/01 03:01:39;;;;;;;0.30;0.30;;;10.70;99.90;;;;;;4989547;28;20395;-70
2024/04/01 03:04:05;;;;;;;0.40;0.40;;;10.70;99.90;;;;;;5006182;28;20061;-70
2024/04/01 03:06:31;;;;;;;0.15;0.15;;;10.70;99.90;;;;;;4990024;28;20058;-70
2024/04/01 03:08:57;;;;;;;1.30;0.52;;;10.70;99.90;;;;;;5006117;28;20117;-70
2024/04/01 03:11:23;;;;;;;0.65;0.52;;;10.70;99.90;;;;;;4989451;28;20073;-71
2024/04/01 03:13:49;;;;;;;0.85;0.22;;;10.80;99.90;;;;;;4990978;28;20658;-70
2024/04/01 03:16:16;;;;;;;0.52;0.52;;;10.70;99.90;;;;;;4989102;28;20519;-70
2024/04/01 03:18:43;;;;;;;4.25;0.80;;;10.80;99.90;;;;;;4985332;28;20034;-70
2024/04/01 03:21:09;;;;;;;8.98;0.40;;;10.80;99.90;;;;;;4984587;28;20041;-70
2024/04/01 03:23:35;;;;;;;0.55;0.28;;;10.80;99.90;;;;;;5004738;28;20029;-70
2024/04/01 03:26:01;;;;;;;0.10;0.10;;;10.80;99.90;;;;;;4990652;28;20031;-70
2024/04/01 03:28:27;;;;;;;0.17;0.13;;;10.80;99.90;;;;;;4990624;28;20057;-70
2024/04/01 03:30:53;;;;;;;1.90;0.20;;;10.80;99.90;;;;;;4989620;28;20069;-70
2024/04/01 03:33:19;;;;;;;2.50;0.30;;;10.80;99.90;;;;;;4990483;28;20030;-70
2024/04/01 03:35:45;;;;;;;1.23;0.25;;;10.90;99.90;;;;;;4981372;28;20375;-70
2024/04/01 03:38:11;;;;;;;1.00;0.28;;;10.90;99.90;;;;;;4989270;28;20117;-70
2024/04/01 03:40:41;;;;;;;0.40;0.20;;;10.90;99.90;;;;;;4990890;28;20026;-70
2024/04/01 03:43:09;;;;;;;3.60;0.30;;;10.90;99.90;;;;;;4988844;28;20046;-69
2024/04/01 03:45:36;;;;;;;0.28;0.22;;;10.90;99.90;;;;;;4990473;28;20041;-69
2024/04/01 03:48:02;;;;;;;0.93;0.32;;;11.00;99.90;;;;;;4988779;28;20394;-69
2024/04/01 03:50:28;;;;;;;1.02;0.60;;;10.90;99.90;;;;;;4989555;28;20074;-68
2024/04/01 03:52:54;;;;;;;1.63;0.60;;;10.80;99.90;;;;;;4988855;28;20047;-68
2024/04/01 03:55:20;;;;;;;0.52;0.32;;;10.80;99.90;;;;;;5005558;28;20487;-68
2024/04/01 03:57:46;;;;;;;0.30;0.20;;;10.80;99.90;;;;;;5004834;28;20065;-69
2024/04/01 04:00:14;;;;;;;1.45;1.02;;;10.80;99.90;;;;;;4987303;28;20030;-69
2024/04/01 04:02:44;;;;;;;1.85;0.60;;;10.90;99.90;;;;;;5003618;28;20428;-69
2024/04/01 04:05:11;;;;;;;4.70;0.43;;;11.00;99.90;;;;;;4989348;28;20395;-69
2024/04/01 04:07:37;;;;;;;1.08;0.30;;;10.80;99.90;;;;;;4988403;28;20034;-69
2024/04/01 04:10:07;;;;;;;0.50;0.35;;;10.80;99.90;;;;;;4989714;28;20026;-69
2024/04/01 04:12:33;;;;;;;0.22;0.22;;;10.80;99.90;;;;;;4988600;28;20030;-69
2024/04/01 04:15:03;;;;;;;1.75;0.77;;;10.80;99.90;;;;;;4991197;28;20027;-69
2024/04/01 04:17:30;;;;;;;0.75;0.45;;;10.70;99.90;;;;;;4987339;28;20030;-69
2024/04/01 04:19:56;;;;;;;0.32;0.30;;;10.70;99.90;;;;;;4992675;28;20023;-69
2024/04/01 04:22:22;;;;;;;1.63;0.30;;;10.50;99.90;;;;;;4992296;28;20116;-69
2024/04/01 04:24:48;;;;;;;0.50;0.30;;;10.50;99.90;;;;;;4993788;28;20460;-69
2024/04/01 04:27:13;;;;;;;0.43;0.30;;;10.60;99.90;;;;;;4993370;28;20748;-69
2024/04/01 04:29:39;;;;;;;5.47;0.35;;;10.50;99.90;;;;;;5008612;28;20014;-70
2024/04/01 04:32:13;;;;;;;1.35;0.40;;;10.50;99.90;;;;;;4992314;28;20113;-70
2024/04/01 04:34:39;;;;;;;0.88;0.28;;;10.40;99.90;;;;;;4993993;28;20074;-70
2024/04/01 04:37:08;;;;;;;0.20;0.20;;;10.50;99.90;;;;;;4975647;28;20041;-69
2024/04/01 04:39:35;;;;;;;0.65;0.32;;;10.50;99.90;;;;;;4993601;28;20026;-69
2024/04/01 04:42:02;;;;;;;1.05;0.30;;;10.60;99.90;;;;;;4993034;28;20034;-69
2024/04/01 04:44:28;;;;;;;1.00;0.68;;;10.50;99.90;;;;;;5008303;28;20058;-69
2024/04/01 04:46:54;;;;;;;0.93;0.30;;;10.50;99.90;;;;;;4975603;28;20125;-70
2024/04/01 04:49:20;;;;;;;1.13;0.52;;;10.50;99.90;;;;;;5008640;28;20030;-70
2024/04/01 04:51:46;;;;;;;4.88;0.60;;;10.40;99.90;;;;;;4992998;28;20034;-70
2024/04/01 04:54:12;;;;;;;5.18;0.45;;;10.50;99.90;;;;;;5008466;28;20514;-70
2024/04/01 04:56:38;;;;;;;3.00;0.50;;;10.40;99.90;;;;;;5007509;28;20030;-70
2024/04/01 04:59:04;;;;;;;1.27;0.73;;;10.40;99.90;;;;;;4993670;28;20037;-70
2024/04/01 05:01:31;;;;;;;0.63;0.38;;;10.40;99.90;;;;;;5007534;28;20057;-69
2024/04/01 05:03:57;;;;;;;1.05;0.70;;;10.50;99.90;;;;;;5008126;28;20033;-70
2024/04/01 05:06:23;;;;;;;1.10;0.73;;;10.50;99.90;;;;;;4991325;28;20026;-70
2024/04/01 05:08:49;;;;;;;0.57;0.35;;;10.40;99.90;;;;;;4993361;28;20031;-70
2024/04/01 05:11:15;;;;;;;1.33;0.55;;;10.50;99.90;;;;;;4993302;28;20030;-70
2024/04/01 05:13:41;;;;;;;6.40;1.25;;;10.50;99.90;;;;;;4984885;28;20455;-70
2024/04/01 05:16:07;;;;;;;0.40;0.30;;;10.60;99.90;;;;;;4991249;28;20438;-70
2024/04/01 05:18:34;;;;;;;1.80;1.13;;;10.60;99.90;;;;;;4992869;28;20062;-70
2024/04/01 05:21:01;;;;;;;1.08;0.52;;;10.60;99.90;;;;;;4992015;28;20026;-70
2024/04/01 05:23:27;;;;;;;0.85;0.50;;;10.60;99.90;;;;;;4974923;28;20444;-69
2024/04/01 05:25:52;;;;;;;1.08;0.80;;;10.60;99.90;;;;;;5007245;28;20026;-69
2024/04/01 05:28:18;;;;;;;5.43;0.88;;;10.60;99.90;;;;;;4992407;28;20147;-69
2024/04/01 05:30:46;;;;;;;1.95;1.00;;;10.60;99.90;;;;;;4991547;28;20517;-70
2024/04/01 05:33:18;;;;;;;1.88;0.82;;;10.60;99.90;;;;;;4991947;28;20088;-69
2024/04/01 05:35:45;;;;;;;0.95;0.60;;;10.50;99.90;;;;;;4990588;28;20034;-69
2024/04/01 05:38:11;;;;;;;1.92;0.68;;;10.50;99.90;;;;;;4992364;28;20026;-70
2024/04/01 05:40:37;;;;;;;2.60;0.85;;;10.60;99.90;;;;;;4992492;28;20030;-70
2024/04/01 05:43:04;;;;;;;1.63;0.98;;;10.50;99.90;;;;;;4990443;28;20034;-70
2024/04/01 05:45:29;;;;;;;1.90;1.05;;;10.60;99.90;;;;;;4990586;28;20080;-70
2024/04/01 05:47:55;;;;;;;1.60;0.75;;;10.60;99.90;;;;;;4991815;28;20030;-70
2024/04/01 05:50:21;;;;;;;1.63;0.47;;;10.60;99.90;;;;;;4990850;28;20058;-70
2024/04/01 05:52:46;;;;;;;1.52;0.80;;;10.60;99.90;;;;;;4984476;28;20121;-70
2024/04/01 05:55:13;;;;;;;1.85;0.75;;;10.60;99.90;;;;;;4992410;28;20034;-70
2024/04/01 05:57:39;;;;;;;0.77;0.52;;;10.60;99.90;;;;;;4991137;28;20053;-70
2024/04/01 06:00:08;;;;;;;0.95;0.52;;;10.50;99.90;;;;;;4992648;28;20044;-70
2024/04/01 06:02:33;;;;;;;5.30;1.02;;;10.60;99.90;;;;;;4990266;28;20030;-70
2024/04/01 06:04:59;;;;;;;0.52;0.52;;;10.50;99.90;;;;;;4986101;28;20501;-70
2024/04/01 06:07:26;;;;;;;1.60;0.73;;;10.60;99.90;;;;;;4988313;28;20105;-70
2024/04/01 06:09:59;;;;;;;3.13;0.50;;;10.50;99.90;;;;;;4986714;28;20535;-69
2024/04/01 06:12:26;;;;;;;0.75;0.60;;;10.50;99.90;;;;;;4988585;28;20030;-69
2024/04/01 06:14:52;;;;;;;1.65;0.90;;;10.50;99.90;;;;;;4992362;28;20019;-70
2024/04/01 06:17:17;;;;;;;6.28;0.65;;;10.50;99.90;;;;;;4991317;28;20109;-70
2024/04/01 06:19:43;;;;;;;4.30;1.52;;;10.50;99.90;;;;;;5006647;28;20030;-70
2024/04/01 06:22:10;;;;;;;4.18;1.15;;;10.50;99.90;;;;;;4990430;28;20394;-70
2024/04/01 06:24:39;;;;;;;1.92;0.50;;;10.60;99.90;;;;;;4991743;28;20026;-70
2024/04/01 06:27:05;;;;;;;2.58;0.65;;;10.50;99.90;;;;;;5006231;28;20105;-68
2024/04/01 06:29:33;;;;;;;0.90;0.40;;;10.40;99.90;;;;;;5006886;28;20113;-69
2024/04/01 06:31:59;;;;;;;6.57;1.17;;;10.40;99.90;;;;;;4989978;28;20391;-69
2024/04/01 06:34:25;;;;;;;0.40;0.30;;;10.40;99.90;;;;;;4992055;28;20045;-70
2024/04/01 06:36:50;;;;;;;0.47;0.38;;;10.30;99.90;;;;;;4990537;28;20034;-70
2024/04/01 06:39:16;;;;;;;0.88;0.43;;;10.40;99.90;;;;;;4991656;28;20035;-69
2024/04/01 06:41:43;;;;;;;4.97;1.20;;;10.30;99.90;;;;;;5006046;28;20039;-69
2024/04/01 06:44:12;;;;;;;1.10;0.40;;;10.30;99.90;;;;;;5006520;28;20391;-74
2024/04/01 06:46:38;;;;;;;0.52;0.52;;;10.40;99.90;;;;;;5006035;28;20026;-72
2024/04/01 06:49:04;;;;;;;1.70;1.27;;;10.40;99.90;;;;;;4985001;28;20126;-72
2024/04/01 06:51:33;;;;;;;0.88;0.40;;;10.40;99.90;;;;;;5005953;28;20064;-72
2024/04/01 06:53:59;;;;;;;0.70;0.32;;;10.30;99.90;;;;;;4991111;28;20030;-71
2024/04/01 06:56:25;;;;;;;0.47;0.25;;;10.20;99.90;;;;;;4989142;28;20467;-72
2024/04/01 06:58:51;;;;;;;1.10;0.45;;;10.30;99.90;;;;;;4991997;28;20034;-71
2024/04/01 07:01:17;;;;;;;0.10;0.10;;;10.20;99.90;;;;;;4991453;28;20535;-67
2024/04/01 07:03:42;;;;;;;0.30;0.20;;;10.30;99.90;;;;;;4990823;28;20498;-68
2024/04/01 07:06:09;;;;;;;0.90;0.30;;;10.30;99.90;;;;;;4991165;28;20022;-68
2024/04/01 07:08:34;;;;;;;2.05;0.17;;;10.20;99.90;;;;;;4989625;28;20034;-68
2024/04/01 07:11:00;;;;;;;0.20;0.10;;;10.30;99.90;;;;;;4991738;28;20024;-68
2024/04/01 07:13:26;;;;;;;0.55;0.40;;;10.30;99.90;;;;;;4989069;28;20487;-68
2024/04/01 07:15:52;;;;;;;1.60;0.70;;;10.30;99.90;;;;;;4990988;28;20049;-69
2024/04/01 07:18:18;;;;;;;2.40;0.65;;;10.30;99.90;;;;;;4989328;28;20117;-68
2024/04/01 07:20:44;;;;;;;1.63;0.50;;;10.30;99.90;;;;;;4983768;28;20606;-67
2024/04/01 07:23:09;;;;;;;0.45;0.32;;;10.40;99.90;;;;;;4990098;28;20121;-68
2024/04/01 07:25:35;;;;;;;0.50;0.20;;;10.40;99.90;;;;;;4983910;28;20101;-68
2024/04/01 07:28:01;;;;;;;0.10;0.10;;;10.40;99.90;;;;;;4985241;28;20027;-67
2024/04/01 07:30:27;;;;;;;2.30;0.45;;;10.40;99.90;;;;;;4981315;28;20026;-67
2024/04/01 07:32:53;;;;;;;0.73;0.30;;;10.40;99.90;;;;;;4969594;28;20038;-67
2024/04/01 07:35:19;;;;;;;1.00;0.50;;;10.50;99.90;;;;;;4985404;28;20038;-67
2024/04/01 07:37:45;;;;;;;0.13;0.13;;;10.50;99.90;;;;;;4990099;28;20033;-67
2024/04/01 07:40:11;;;;;;;0.40;0.20;;;10.50;99.90;;;;;;4991335;28;20034;-68
2024/04/01 07:42:37;;;;;;;0.98;0.40;;;10.50;99.90;;;;;;4986873;28;20030;-68
2024/04/01 07:45:03;;;;;;;0.65;0.50;;;10.40;99.90;;;;;;5004770;28;20442;-67
2024/04/01 07:47:29;;;;;;;0.68;0.40;;;10.40;99.90;;;;;;4990468;28;20026;-68
2024/04/01 07:49:55;;;;;;;0.10;0.10;;;10.40;99.90;;;;;;5006620;28;20027;-67
2024/04/01 07:52:21;;;;;;;0.25;0.25;;;10.50;99.90;;;;;;4993647;28;20438;-67
2024/04/01 07:54:47;;;;;;;1.38;0.25;;;10.50;99.90;;;;;;4992595;28;20121;-67
2024/04/01 07:57:13;;;;;;;3.08;0.40;;;10.60;99.90;;;;;;4994646;28;20101;-67
2024/04/01 07:59:38;;;;;;;0.20;0.20;;;10.60;99.90;;;;;;4985435;28;20455;-68
2024/04/01 08:02:05;;;;;;;0.13;0.13;;;10.70;99.90;;;;;;4987276;28;20037;-67
2024/04/01 08:04:30;;;;;;;0.65;0.35;;;10.60;99.90;;;;;;4985811;28;20023;-68
2024/04/01 08:06:56;;;;;;;0.22;0.20;;;10.70;99.90;;;;;;4987815;28;20026;-68
2024/04/01 08:09:23;;;;;;;1.00;0.43;;;10.80;99.90;;;;;;4990481;28;20692;-67
2024/04/01 08:11:50;;;;;;;0.17;0.15;;;10.60;99.90;;;;;;4992350;28;20034;-67
2024/04/01 08:14:18;;;;;;;0.65;0.30;;;10.50;99.90;;;;;;5005532;28;20034;-67
2024/04/01 08:16:45;;;;;;;2.00;1.13;;;10.50;99.90;;;;;;4991370;28;20062;-68
2024/04/01 08:19:11;;;;;;;0.35;0.10;;;10.60;99.90;;;;;;4988543;28;20451;-68
2024/04/01 08:21:38;;;;;;;0.52;0.10;;;10.50;99.90;;;;;;4992158;28;20491;-67
2024/04/01 08:24:04;;;;;;;0.43;0.25;;;10.50;99.90;;;;;;4976706;28;20229;-67
2024/04/01 08:26:30;;;;;;;0.17;0.17;;;10.50;99.90;;;;;;4993184;28;20029;-68
2024/04/01 08:28:56;;;;;;;0.30;0.10;;;10.50;99.90;;;;;;4994343;28;20026;-68
2024/04/01 08:31:22;;;;;;;0.20;0.20;;;10.60;99.90;;;;;;4992403;28;20030;-68
2024/04/01 08:33:48;;;;;;;1.10;0.52;;;10.60;99.90;;;;;;5008878;28;20019;-69
2024/04/01 08:36:14;;;;;;;0.22;0.10;;;10.70;99.90;;;;;;4992699;28;20073;-68
2024/04/01 08:38:39;;;;;;;0.20;0.20;;;10.80;99.90;;;;;;4994027;28;20026;-67
2024/04/01 08:41:14;;;;;;;0.25;0.17;;;10.60;99.90;;;;;;4993177;28;20045;-68
2024/04/01 08:44:19;;;;;;;1.23;0.20;;;10.60;99.90;;;;;;5008927;28;20026;-68
2024/04/01 08:46:50;;;;;;;1.67;0.35;;;10.60;99.90;;;;;;4916900;29;20043;-68
2024/04/01 08:49:43;;;;;;;0.20;0.15;;;10.60;99.90;;;;;;4933804;29;20047;-69
2024/04/01 08:52:13;;;;;;;0.00;0.00;;;10.50;99.90;;;;;;4919868;29;20051;-70
2024/04/01 08:54:41;;;;;;;0.00;0.00;;;10.50;99.90;;;;;;4934432;29;20028;-69
2024/04/01 08:57:07;;;;;;;0.00;0.00;;;10.40;99.90;;;;;;4932705;29;20131;-69
2024/04/01 08:59:35;;;;;;;0.45;0.30;;;10.40;99.90;;;;;;4917724;29;20071;-69
2024/04/01 09:02:02;;;;;;;0.10;0.10;;;10.30;99.90;;;;;;4932843;29;20076;-69
2024/04/01 09:04:29;;;;;;;0.08;0.08;;;10.30;99.90;;;;;;4927493;29;20179;-69
2024/04/01 09:06:56;;;;;;;0.00;0.00;;;10.30;99.90;;;;;;4915008;29;20053;-69
2024/04/01 09:09:22;;;;;;;0.17;0.10;;;10.30;99.90;;;;;;4923477;29;20104;-69
2024/04/01 09:11:49;;;;;;;1.55;0.17;;;10.20;99.90;;;;;;4928042;29;20138;-70
2024/04/01 09:14:15;;;;;;;0.65;0.10;;;10.30;99.90;;;;;;4924532;29;20032;-70
2024/04/01 09:16:40;;;;;;;0.10;0.08;;;10.40;99.90;;;;;;4939249;28;20492;-70
2024/04/01 09:19:09;;;;;;;1.63;0.65;;;10.30;99.90;;;;;;5006504;28;20050;-70
2024/04/01 09:21:35;;;;;;;0.40;0.17;;;10.30;99.90;;;;;;5007058;28;20380;-68
2024/04/01 09:24:02;;;;;;;0.55;0.30;;;10.40;99.90;;;;;;4991577;28;20034;-68
2024/04/01 09:26:32;;;;;;;0.50;0.10;;;10.30;99.90;;;;;;4974783;28;20026;-68
2024/04/01 09:28:59;;;;;;;0.10;0.10;;;10.50;99.90;;;;;;4993547;28;20022;-68
2024/04/01 09:31:25;;;;;;;0.28;0.13;;;10.50;99.90;;;;;;4990717;28;20026;-68
2024/04/01 09:33:52;;;;;;;0.17;0.13;;;10.60;99.90;;;;;;4993877;28;20071;-68
2024/04/01 09:36:18;;;;;;;0.00;0.00;;;10.80;99.90;;;;;;4988665;28;20503;-69
2024/04/01 09:38:51;;;;;;;0.00;0.00;;;10.90;99.90;;;;;;4992937;28;20100;-68
2024/04/01 09:41:17;;;;;;;0.77;0.32;;;10.90;99.90;;;;;;4992513;28;20030;-68
2024/04/01 09:43:43;;;;;;;0.20;0.13;;;10.90;99.90;;;;;;5007642;28;20056;-70
2024/04/01 09:46:09;;;;;;;0.28;0.10;;;10.80;99.90;;;;;;4989692;28;20030;-68
2024/04/01 09:48:36;;;;;;;0.13;0.10;;;10.70;99.90;;;;;;4992702;28;20361;-67
2024/04/01 09:51:02;;;;;;;0.10;0.10;;;10.80;99.90;;;;;;4991072;28;20023;-68
2024/04/01 09:53:29;;;;;;;0.13;0.10;;;10.80;99.90;;;;;;4991156;28;20030;-68
2024/04/01 09:56:39;;;;;;;0.03;0.03;;;10.70;99.90;;;;;;4991695;28;20038;-69
2024/04/01 09:59:14;;;;;;;0.70;0.30;;;10.60;99.90;;;;;;4986795;28;20033;-69
2024/04/01 10:02:17;;;;;;;0.30;0.20;;;10.60;99.90;;;;;;4990872;28;20042;-69
2024/04/01 10:05:11;;;;;;;0.10;0.10;;;10.60;99.90;;;;;;4990912;28;20038;-69
2024/04/01 10:08:24;;;;;;;0.65;0.43;;;10.70;99.90;;;;;;5004609;28;20325;-69
2024/04/01 10:11:19;;;;;;;0.10;0.10;;;10.80;99.90;;;;;;4991527;28;20049;-69
2024/04/01 10:14:19;;;;;;;0.35;0.20;;;10.80;99.90;;;;;;4991471;28;20026;-68
2024/04/01 10:17:21;;;;;;;0.10;0.05;;;10.80;99.90;;;;;;4991707;28;20746;-67
2024/04/01 10:20:10;;;;;;;0.13;0.13;;;10.80;99.90;;;;;;4990911;28;20045;-69
2024/04/01 10:23:02;;;;;;;0.85;0.35;;;10.80;99.90;;;;;;4986663;28;20049;-68
2024/04/01 10:26:07;;;;;;;0.30;0.20;;;10.90;99.90;;;;;;4954238;28;20043;-68
2024/04/01 10:29:10;;;;;;;0.10;0.10;;;10.90;99.90;;;;;;4991923;28;20105;-69
2024/04/01 10:31:42;;;;;;;0.47;0.17;;;10.90;99.90;;;;;;4978282;28;20031;-69
2024/04/01 10:34:26;;;;;;;0.00;0.00;;;11.00;99.90;;;;;;4976148;28;20030;-70
2024/04/01 10:37:35;;;;;;;0.32;0.32;;;10.80;99.90;;;;;;4980409;28;20104;-68
2024/04/01 10:40:25;;;;;;;0.25;0.20;;;10.80;99.90;;;;;;4978275;28;20026;-69
2024/04/01 10:43:40;;;;;;;0.32;0.22;;;10.80;99.90;;;;;;4993008;28;20348;-70
2024/04/01 10:46:57;;;;;;;0.45;0.30;;;10.90;99.90;;;;;;4985421;28;20054;-69
2024/04/01 10:49:44;;;;;;;0.30;0.10;;;10.80;99.90;;;;;;4975917;28;20122;-70
2024/04/01 10:52:57;;;;;;;0.20;0.13;;;10.90;99.90;;;;;;4986291;28;20065;-68
2024/04/01 10:56:05;;;;;;;0.38;0.28;;;10.90;99.90;;;;;;4987643;28;20038;-59
2024/04/01 10:59:01;;;;;;;1.00;0.55;;;11.00;99.90;;;;;;4991394;28;20042;-54
2024/04/01 11:01:51;;;;;;;0.25;0.22;;;11.10;99.90;;;;;;4966826;28;20027;-59
2024/04/01 11:05:13;;;;;;;0.40;0.38;;;11.20;99.90;;;;;;5005974;28;20359;-58
2024/04/01 11:08:32;;;;;;;0.32;0.30;;;11.10;99.90;;;;;;4990695;28;20034;-58
2024/04/01 11:11:16;;;;;;;0.17;0.17;;;11.20;99.90;;;;;;4991566;28;20034;-69
2024/04/01 11:13:42;;;;;;;0.32;0.20;;;11.00;99.90;;;;;;4990706;28;20030;-69
2024/04/01 11:16:09;;;;;;;0.28;0.20;;;11.00;99.90;;;;;;4983904;28;20037;-69
2024/04/01 11:18:38;;;;;;;1.55;0.30;;;11.00;99.90;;;;;;4984962;28;20038;-69
2024/04/01 11:21:25;;;;;;;0.55;0.30;;;11.10;99.90;;;;;;4985955;28;20038;-69
2024/04/01 11:24:30;;;;;;;0.10;0.10;;;11.10;99.90;;;;;;4986564;28;20582;-70
2024/04/01 11:27:34;;;;;;;0.28;0.25;;;11.00;99.90;;;;;;5012290;28;20438;-69
2024/04/01 11:30:25;;;;;;;0.88;0.52;;;11.30;99.90;;;;;;4987060;28;20081;-70
2024/04/01 11:33:03;;;;;;;0.28;0.20;;;11.40;99.90;;;;;;4994046;28;20474;-70
2024/04/01 11:35:52;;;;;;;2.95;0.50;;;11.30;99.90;;;;;;4993023;28;20030;-70
2024/04/01 11:38:48;;;;;;;0.30;0.15;;;11.10;99.90;;;;;;4994925;28;20049;-70
2024/04/01 11:41:18;;;;;;;0.20;0.20;;;11.00;99.90;;;;;;4989513;28;20518;-70
2024/04/01 11:43:46;;;;;;;0.38;0.38;;;10.80;99.90;;;;;;5009063;28;20022;-70
2024/04/01 11:46:13;;;;;;;0.30;0.30;;;10.80;99.90;;;;;;4992226;28;20029;-70
2024/04/01 11:48:39;;;;;;;0.00;0.00;;;10.80;99.90;;;;;;4994000;28;20025;-70
2024/04/01 11:51:05;;;;;;;0.30;0.10;;;10.80;99.90;;;;;;5009183;28;20038;-70
2024/04/01 11:53:40;;;;;;;0.75;0.22;;;10.90;99.90;;;;;;4993556;28;20026;-70
2024/04/01 11:56:07;;;;;;;0.20;0.20;;;10.90;99.90;;;;;;4991344;28;20026;-69
2024/04/01 11:58:33;;;;;;;0.32;0.32;;;11.00;99.90;;;;;;5007340;28;20057;-69
2024/04/01 12:01:00;;;;;;;0.17;0.10;;;11.10;99.90;;;;;;4993597;28;20046;-70
2024/04/01 12:03:41;;;;;;;0.20;0.15;;;11.10;99.90;;;;;;5000700;28;20054;-70
2024/04/01 12:06:12;;;;;;;0.13;0.13;;;11.20;99.90;;;;;;5003244;28;20022;-70
2024/04/01 12:08:39;;;;;;;0.10;0.10;;;11.30;99.90;;;;;;4991402;28;20061;-70
2024/04/01 12:11:07;;;;;;;1.65;0.35;;;11.30;99.90;;;;;;5009500;28;20018;-70
2024/04/01 12:13:40;;;;;;;0.68;0.20;;;11.30;99.90;;;;;;4992192;28;20086;-69
2024/04/01 12:16:08;;;;;;;0.10;0.10;;;11.40;99.90;;;;;;4987948;28;20084;-70
2024/04/01 12:18:44;;;;;;;0.10;0.10;;;11.40;99.90;;;;;;4991686;28;20058;-69
2024/04/01 12:21:11;;;;;;;1.73;0.30;;;11.40;99.90;;;;;;4976897;28;20026;-69
2024/04/01 12:23:38;;;;;;;0.93;0.20;;;11.40;99.90;;;;;;4992169;28;20459;-69
2024/04/01 12:26:09;;;;;;;0.13;0.03;;;11.40;99.90;;;;;;4992835;28;20060;-69
2024/04/01 12:28:37;;;;;;;0.43;0.20;;;11.30;99.90;;;;;;4991627;28;20029;-71
2024/04/01 12:31:04;;;;;;;0.10;0.10;;;11.30;99.90;;;;;;4994317;28;20030;-70
2024/04/01 12:33:36;;;;;;;1.27;0.32;;;11.30;99.90;;;;;;4992525;28;20062;-69
2024/04/01 12:36:04;;;;;;;0.63;0.32;;;11.30;99.90;;;;;;4991764;28;20096;-69
2024/04/01 12:38:39;;;;;;;0.45;0.30;;;11.30;99.90;;;;;;4991926;28;20034;-69
2024/04/01 12:41:07;;;;;;;0.40;0.30;;;11.30;99.90;;;;;;4993002;28;20030;-69
2024/04/01 12:43:35;;;;;;;6.35;0.40;;;11.30;99.90;;;;;;4991902;28;20023;-70
2024/04/01 12:46:01;;;;;;;0.90;0.80;;;11.20;99.90;;;;;;4976074;28;20026;-70
2024/04/01 12:48:27;;;;;;;0.13;0.10;;;11.10;99.90;;;;;;4991652;28;20018;-69
2024/04/01 12:51:03;;;;;;;0.35;0.22;;;11.10;99.90;;;;;;4992400;28;20547;-69
2024/04/01 12:54:09;;;;;;;1.15;0.40;;;10.70;99.90;;;;;;4991319;28;20030;-69
2024/04/01 12:56:49;;;;;;;0.17;0.10;;;10.40;99.90;;;;;;4993536;28;20593;-69
2024/04/01 12:59:48;;;;;;;0.80;0.55;;;10.20;99.90;;;;;;4991788;28;20518;-69
2024/04/01 13:02:47;;;;;;;0.50;0.30;;;10.10;99.90;;;;;;4993634;28;20084;-68
2024/04/01 13:05:25;;;;;;;0.82;0.32;;;10.10;99.90;;;;;;5007239;28;20026;-68